Time;durP1;ratioP1;P1;durP2;ratioP2;P2;SDS_P1;SDS_P2;PMS_P1;PMS_P2;Temp;Humidity;BMP_temperature;BMP_pressure;BME280_temperature;BME280_humidity;BME280_pressure;Samples;Min_cycle;Max_cycle;Signal;HPM_P1;HPM_P2
2023/06/24 00:01:45;;;;;;;1.50;0.90;;;19.80;98.20;;;;;;5016524;28;20498;-84
2023/06/24 00:04:14;;;;;;;1.50;1.00;;;19.80;98.20;;;;;;5025635;28;20463;-85
2023/06/24 00:06:42;;;;;;;1.50;0.90;;;19.80;98.20;;;;;;5004846;28;20580;-84
2023/06/24 00:09:08;;;;;;;1.50;1.00;;;19.70;98.20;;;;;;5007663;28;20476;-84
2023/06/24 00:11:35;;;;;;;1.50;1.00;;;19.70;98.20;;;;;;5002780;28;21063;-84
2023/06/24 00:14:02;;;;;;;1.50;0.90;;;19.70;98.20;;;;;;5009900;28;20460;-84
2023/06/24 00:16:29;;;;;;;1.50;0.90;;;19.70;98.20;;;;;;5000105;28;20492;-84
2023/06/24 00:19:00;;;;;;;1.50;0.90;;;19.60;98.20;;;;;;5008243;28;20697;-84
2023/06/24 00:21:29;;;;;;;1.50;0.90;;;19.60;98.20;;;;;;5001839;28;20795;-84
2023/06/24 00:23:57;;;;;;;1.50;0.90;;;19.60;98.20;;;;;;5013677;28;20468;-84
2023/06/24 00:26:24;;;;;;;1.50;0.90;;;19.60;98.20;;;;;;5002618;28;20482;-84
2023/06/24 00:28:51;;;;;;;1.47;0.90;;;19.60;98.20;;;;;;5009130;28;20827;-84
2023/06/24 00:31:19;;;;;;;1.50;0.90;;;19.60;98.20;;;;;;5001335;28;20476;-84
2023/06/24 00:33:45;;;;;;;1.50;0.90;;;19.60;98.20;;;;;;5018299;28;20449;-84
2023/06/24 00:36:12;;;;;;;1.50;0.90;;;19.60;98.20;;;;;;5003624;28;20505;-85
2023/06/24 00:38:40;;;;;;;1.50;0.90;;;19.60;98.20;;;;;;5005128;28;20488;-84
2023/06/24 00:41:08;;;;;;;1.50;0.90;;;19.60;98.20;;;;;;4998465;28;20484;-84
2023/06/24 00:43:35;;;;;;;1.50;0.90;;;19.50;98.20;;;;;;5005565;28;20547;-85
2023/06/24 00:46:02;;;;;;;1.50;0.90;;;19.50;98.20;;;;;;5004412;28;20564;-84
2023/06/24 00:48:31;;;;;;;1.50;0.97;;;19.50;98.20;;;;;;5005870;28;20532;-84
2023/06/24 00:50:58;;;;;;;1.50;0.90;;;19.50;98.20;;;;;;4993687;28;20483;-84
2023/06/24 00:53:25;;;;;;;1.50;0.90;;;19.40;98.20;;;;;;5016249;28;20456;-84
2023/06/24 00:55:56;;;;;;;1.50;1.00;;;19.40;98.20;;;;;;4992338;28;20576;-85
2023/06/24 00:58:24;;;;;;;1.70;1.43;;;19.40;98.20;;;;;;5010207;28;20467;-84
2023/06/24 01:00:57;;;;;;;1.50;0.90;;;19.30;98.20;;;;;;4998360;28;20457;-84
2023/06/24 01:03:24;;;;;;;1.50;0.90;;;19.40;98.20;;;;;;5014861;28;20499;-84
2023/06/24 01:05:51;;;;;;;1.50;0.90;;;19.40;98.20;;;;;;4998845;28;20476;-84
2023/06/24 01:08:22;;;;;;;1.50;0.90;;;19.30;98.20;;;;;;5005858;28;20471;-84
2023/06/24 01:10:49;;;;;;;1.50;1.00;;;19.30;98.20;;;;;;4990419;28;20468;-84
2023/06/24 01:13:18;;;;;;;1.50;1.00;;;19.30;98.20;;;;;;5008095;28;20467;-84
2023/06/24 01:15:46;;;;;;;1.50;1.00;;;19.30;98.20;;;;;;5004794;28;20782;-84
2023/06/24 01:18:21;;;;;;;1.50;0.90;;;19.20;98.20;;;;;;4981347;28;20559;-84
2023/06/24 01:20:53;;;;;;;1.50;0.90;;;19.20;98.20;;;;;;4997996;28;20470;-84
2023/06/24 01:23:40;;;;;;;1.50;0.90;;;19.20;98.20;;;;;;5006308;28;20561;-84
2023/06/24 01:26:34;;;;;;;1.50;0.97;;;19.20;98.20;;;;;;4999745;28;21118;-84
2023/06/24 01:29:44;;;;;;;1.50;0.90;;;19.20;98.20;;;;;;5005481;28;20955;-83
2023/06/24 01:32:17;;;;;;;1.50;0.90;;;19.10;98.20;;;;;;4991725;28;20563;-84
2023/06/24 01:34:53;;;;;;;1.50;1.00;;;19.10;98.20;;;;;;5007373;28;20523;-84
2023/06/24 01:37:26;;;;;;;1.50;0.90;;;19.10;98.20;;;;;;4998639;28;20480;-84
2023/06/24 01:40:00;;;;;;;1.50;0.90;;;19.10;98.20;;;;;;4997776;28;20469;-84
2023/06/24 01:42:30;;;;;;;1.50;0.90;;;19.10;98.20;;;;;;5000345;28;20488;-84
2023/06/24 01:44:59;;;;;;;1.50;0.90;;;19.00;98.20;;;;;;4999043;28;20492;-84
2023/06/24 01:47:29;;;;;;;1.50;0.90;;;19.00;98.20;;;;;;4994883;28;20487;-84
2023/06/24 01:49:59;;;;;;;1.50;0.90;;;19.00;98.20;;;;;;4998420;28;20575;-84
2023/06/24 01:55:19;;;;;;;1.50;1.00;;;19.00;98.20;;;;;;4981039;28;20544;-84
2023/06/24 01:57:49;;;;;;;1.47;0.90;;;19.00;98.20;;;;;;4993701;28;20477;-84
2023/06/24 02:00:17;;;;;;;1.50;0.90;;;19.00;98.20;;;;;;4993541;28;20456;-84
2023/06/24 02:02:47;;;;;;;1.50;0.90;;;19.00;98.20;;;;;;4994419;28;20488;-84
2023/06/24 02:05:15;;;;;;;1.50;0.90;;;19.00;98.20;;;;;;4997202;28;20516;-84
2023/06/24 02:07:43;;;;;;;1.50;0.93;;;19.00;98.20;;;;;;4995586;28;20484;-83
2023/06/24 02:10:11;;;;;;;1.47;1.00;;;18.90;98.20;;;;;;4994818;28;20461;-83
2023/06/24 02:12:38;;;;;;;1.50;1.00;;;18.90;98.20;;;;;;5001563;28;20476;-83
2023/06/24 02:15:07;;;;;;;1.50;1.00;;;18.90;98.20;;;;;;4998900;28;20556;-84
2023/06/24 02:17:35;;;;;;;1.47;0.90;;;18.90;98.20;;;;;;4996535;28;20484;-84
2023/06/24 02:20:11;;;;;;;1.50;1.00;;;18.80;98.20;;;;;;5002842;28;20461;-84
2023/06/24 02:22:40;;;;;;;1.50;0.93;;;18.80;98.20;;;;;;5001973;28;20486;-83
2023/06/24 02:25:08;;;;;;;1.50;1.00;;;18.80;98.20;;;;;;5001393;28;20575;-84
2023/06/24 02:27:36;;;;;;;1.50;0.90;;;18.70;98.20;;;;;;5000137;28;20513;-83
2023/06/24 02:30:04;;;;;;;1.50;0.90;;;18.70;98.20;;;;;;5004360;28;20525;-83
2023/06/24 02:32:31;;;;;;;1.47;0.90;;;18.70;98.20;;;;;;4997315;28;20484;-82
2023/06/24 02:34:59;;;;;;;1.50;0.90;;;18.70;98.20;;;;;;5006116;28;21007;-83
2023/06/24 02:37:27;;;;;;;1.50;1.00;;;18.60;98.20;;;;;;5013254;28;20474;-83
2023/06/24 02:39:54;;;;;;;1.50;0.90;;;18.60;98.20;;;;;;5005872;28;20464;-82
2023/06/24 02:42:20;;;;;;;1.47;0.90;;;18.70;98.20;;;;;;5000867;28;20481;-82
2023/06/24 02:44:47;;;;;;;1.50;0.90;;;18.60;98.20;;;;;;5015258;28;20480;-83
2023/06/24 02:47:17;;;;;;;1.50;0.90;;;18.60;98.20;;;;;;4999613;28;20480;-83
2023/06/24 02:49:47;;;;;;;1.50;0.90;;;18.60;98.20;;;;;;5005958;28;20457;-83
2023/06/24 02:52:15;;;;;;;1.47;0.90;;;18.60;98.20;;;;;;4999176;28;20475;-83
2023/06/24 02:54:44;;;;;;;1.50;0.90;;;18.50;98.20;;;;;;5006025;28;20487;-83
2023/06/24 02:57:11;;;;;;;1.70;1.30;;;18.50;98.20;;;;;;5005682;28;20483;-82
2023/06/24 02:59:38;;;;;;;1.50;0.90;;;18.50;98.20;;;;;;5011134;28;20463;-82
2023/06/24 03:02:06;;;;;;;1.50;0.90;;;18.50;98.20;;;;;;5006356;28;20566;-83
2023/06/24 03:04:33;;;;;;;1.50;0.90;;;18.50;98.20;;;;;;5014434;28;21024;-83
2023/06/24 03:07:02;;;;;;;1.50;0.90;;;18.50;98.20;;;;;;5006772;28;20507;-82
2023/06/24 03:09:29;;;;;;;1.50;0.90;;;18.50;98.20;;;;;;5016542;28;20458;-83
2023/06/24 03:11:57;;;;;;;1.40;0.90;;;18.40;98.20;;;;;;5002365;28;21380;-83
2023/06/24 03:14:24;;;;;;;1.50;0.90;;;18.40;98.20;;;;;;5015486;28;20472;-82
2023/06/24 03:16:51;;;;;;;1.50;0.90;;;18.50;98.20;;;;;;5002172;28;20559;-83
2023/06/24 03:19:18;;;;;;;1.50;0.90;;;18.50;98.20;;;;;;5020725;28;20468;-82
2023/06/24 03:21:44;;;;;;;1.50;0.90;;;18.50;98.20;;;;;;5002305;28;20548;-83
2023/06/24 03:24:11;;;;;;;1.50;1.00;;;18.50;98.20;;;;;;5013405;28;20488;-83
2023/06/24 03:26:40;;;;;;;1.50;0.90;;;18.50;98.20;;;;;;5000964;28;20512;-82
2023/06/24 03:29:08;;;;;;;1.50;0.90;;;18.50;98.20;;;;;;5004240;28;20457;-83
2023/06/24 03:31:35;;;;;;;1.50;0.90;;;18.50;98.20;;;;;;5001638;28;20543;-83
2023/06/24 03:34:02;;;;;;;1.47;0.90;;;18.50;98.20;;;;;;5019935;28;20521;-82
2023/06/24 03:39:47;;;;;;;1.50;0.90;;;18.50;98.20;;;;;;4993653;28;20829;-82
2023/06/24 03:42:14;;;;;;;1.50;0.90;;;18.50;98.20;;;;;;4998909;28;20476;-83
2023/06/24 03:44:42;;;;;;;1.50;1.00;;;18.50;98.20;;;;;;5001439;28;20523;-83
2023/06/24 03:47:09;;;;;;;1.50;1.00;;;18.50;98.20;;;;;;5004838;28;20547;-82
2023/06/24 03:49:36;;;;;;;1.50;0.90;;;18.50;98.20;;;;;;5018653;28;20571;-83
2023/06/24 03:52:03;;;;;;;1.50;0.90;;;18.50;98.20;;;;;;5012748;28;20475;-82
2023/06/24 03:54:30;;;;;;;1.50;0.90;;;18.50;98.20;;;;;;5013378;28;20483;-82
2023/06/24 03:56:57;;;;;;;1.47;0.90;;;18.50;98.20;;;;;;5002795;28;20491;-82
2023/06/24 03:59:24;;;;;;;1.50;0.90;;;18.50;98.20;;;;;;5008116;28;20468;-82
2023/06/24 04:01:52;;;;;;;1.50;0.90;;;18.50;98.20;;;;;;5000225;28;20496;-82
2023/06/24 04:04:19;;;;;;;1.50;0.90;;;18.50;98.20;;;;;;5012711;28;20507;-82
2023/06/24 04:06:46;;;;;;;1.47;0.90;;;18.50;98.20;;;;;;4999271;28;21180;-83
2023/06/24 04:09:12;;;;;;;1.50;1.10;;;18.50;98.20;;;;;;5003791;28;20472;-82
2023/06/24 04:11:39;;;;;;;1.50;0.90;;;18.50;98.20;;;;;;4996422;28;20472;-82
2023/06/24 04:14:09;;;;;;;1.50;1.00;;;18.60;98.20;;;;;;5015149;28;20972;-82
2023/06/24 04:16:36;;;;;;;1.40;0.90;;;18.50;98.20;;;;;;4999272;28;20479;-83
2023/06/24 04:19:04;;;;;;;1.50;1.00;;;18.50;98.20;;;;;;5013135;28;20544;-82
2023/06/24 04:22:04;;;;;;;1.47;0.93;;;18.50;98.20;;;;;;4999420;28;20479;-82
2023/06/24 04:24:31;;;;;;;1.47;0.90;;;18.50;98.20;;;;;;5005065;28;20999;-82
2023/06/24 04:26:59;;;;;;;1.43;0.90;;;18.60;98.20;;;;;;5001955;28;20496;-82
2023/06/24 04:29:25;;;;;;;1.50;1.23;;;18.60;98.20;;;;;;5010303;28;20461;-82
2023/06/24 04:31:52;;;;;;;1.50;0.90;;;18.60;98.20;;;;;;4997931;28;20484;-85
2023/06/24 04:34:20;;;;;;;1.47;0.90;;;18.70;98.20;;;;;;5005092;28;20507;-84
2023/06/24 04:37:01;;;;;;;1.47;0.90;;;18.70;98.20;;;;;;4997731;28;20563;-81
2023/06/24 04:39:28;;;;;;;1.47;0.93;;;18.80;98.20;;;;;;5010747;28;20487;-83
2023/06/24 04:41:55;;;;;;;1.50;0.90;;;18.80;98.20;;;;;;5003722;28;20487;-84
2023/06/24 04:44:22;;;;;;;1.50;0.90;;;18.90;98.20;;;;;;5012722;28;20495;-82
2023/06/24 04:46:48;;;;;;;1.50;0.90;;;18.90;98.20;;;;;;5001237;28;20472;-85
2023/06/24 04:49:15;;;;;;;1.50;0.90;;;19.00;98.20;;;;;;5009981;28;20959;-85
2023/06/24 04:51:43;;;;;;;1.47;0.90;;;19.10;98.20;;;;;;4997900;28;20512;-85
2023/06/24 04:54:12;;;;;;;1.50;0.93;;;19.20;98.20;;;;;;5011580;28;20457;-85
2023/06/24 04:56:39;;;;;;;1.50;0.90;;;19.30;98.20;;;;;;4994640;28;20472;-84
2023/06/24 04:59:05;;;;;;;1.50;0.90;;;19.40;98.20;;;;;;5008834;28;20471;-86
2023/06/24 05:01:32;;;;;;;1.50;1.00;;;19.50;98.20;;;;;;4997224;28;20484;-82
2023/06/24 05:03:59;;;;;;;4.00;2.60;;;19.60;98.20;;;;;;5007619;28;21156;-83
2023/06/24 05:06:26;;;;;;;1.50;0.90;;;19.70;98.20;;;;;;4992286;28;20494;-82
2023/06/24 05:08:55;;;;;;;1.50;0.90;;;19.80;98.20;;;;;;5009969;28;20547;-84
2023/06/24 05:11:21;;;;;;;1.50;0.90;;;19.90;98.20;;;;;;4997333;28;20535;-84
2023/06/24 05:13:48;;;;;;;1.50;0.90;;;20.00;98.20;;;;;;5007689;28;20540;-85
2023/06/24 05:16:16;;;;;;;1.50;0.90;;;20.10;98.20;;;;;;4995049;28;20490;-84
2023/06/24 05:18:44;;;;;;;1.47;0.90;;;20.30;98.20;;;;;;5005925;28;20489;-84
2023/06/24 05:21:20;;;;;;;1.50;0.90;;;20.50;98.20;;;;;;4990612;28;20972;-82
2023/06/24 05:23:47;;;;;;;1.50;0.90;;;20.60;98.20;;;;;;5005848;28;20487;-84
2023/06/24 05:26:15;;;;;;;1.50;0.90;;;20.80;98.20;;;;;;4991896;28;20556;-85
2023/06/24 05:28:42;;;;;;;1.50;0.90;;;20.90;98.20;;;;;;4994581;28;20472;-84
2023/06/24 05:31:09;;;;;;;1.50;0.90;;;21.10;98.20;;;;;;4993706;28;20907;-83
2023/06/24 05:37:30;;;;;;;1.50;0.90;;;21.40;98.20;;;;;;5050068;23;20504;-83
2023/06/24 05:40:01;;;;;;;1.50;0.90;;;21.50;98.20;;;;;;5027594;28;20455;-82
2023/06/24 05:42:30;;;;;;;1.50;0.90;;;21.70;98.20;;;;;;4993813;28;20480;-83
2023/06/24 05:44:57;;;;;;;1.50;0.90;;;21.90;98.20;;;;;;5013325;28;21025;-83
2023/06/24 05:47:24;;;;;;;1.50;0.90;;;22.00;98.20;;;;;;4996805;28;20488;-83
2023/06/24 05:49:51;;;;;;;1.50;0.90;;;22.10;98.20;;;;;;5016577;28;20471;-82
2023/06/24 05:52:18;;;;;;;1.50;1.00;;;22.20;98.20;;;;;;4984729;28;20484;-85
2023/06/24 05:55:35;;;;;;;1.50;0.90;;;22.30;98.20;;;;;;5016254;28;20492;-83
2023/06/24 05:58:11;;;;;;;1.50;0.90;;;22.30;98.20;;;;;;4910618;28;20517;-82
2023/06/24 06:01:01;;;;;;;;;;;;;;;;;;;;;
2023/06/24 06:03:28;;;;;;;1.50;0.90;;;22.50;98.20;;;;;;5007839;28;20490;-83
2023/06/24 06:05:55;;;;;;;1.50;0.90;;;22.60;98.20;;;;;;4999751;28;20505;-83
2023/06/24 06:08:22;;;;;;;1.50;0.90;;;22.70;98.20;;;;;;4997981;28;20958;-84
2023/06/24 06:10:51;;;;;;;1.50;0.90;;;22.80;98.20;;;;;;5012251;28;20523;-83
2023/06/24 06:13:20;;;;;;;1.50;0.90;;;22.90;98.20;;;;;;5011046;28;20482;-83
2023/06/24 06:15:47;;;;;;;1.50;0.90;;;23.10;98.20;;;;;;5019860;28;20484;-84
2023/06/24 06:18:14;;;;;;;1.50;0.90;;;23.30;98.20;;;;;;4990625;28;20483;-80
2023/06/24 06:20:46;;;;;;;1.50;0.90;;;23.50;98.20;;;;;;5009899;28;20463;-81
2023/06/24 06:23:14;;;;;;;1.60;1.10;;;23.70;98.20;;;;;;4992339;28;20610;-80
2023/06/24 06:25:40;;;;;;;1.50;0.90;;;23.80;98.20;;;;;;5014633;28;20483;-81
2023/06/24 06:28:07;;;;;;;1.50;0.90;;;23.90;98.20;;;;;;4985051;28;20491;-81
2023/06/24 06:30:42;;;;;;;1.50;0.90;;;24.10;98.20;;;;;;5014018;28;21009;-79
2023/06/24 06:33:24;;;;;;;1.50;0.90;;;24.10;97.10;;;;;;4977197;28;20947;-81
2023/06/24 06:35:51;;;;;;;6.10;2.50;;;24.20;97.40;;;;;;5006131;28;21448;-80
2023/06/24 06:38:18;;;;;;;1.50;0.90;;;24.20;97.50;;;;;;5018574;28;20459;-80
2023/06/24 06:41:13;;;;;;;;;;;;;;;;;;;;;
2023/06/24 06:43:40;;;;;;;1.50;0.90;;;24.60;95.70;;;;;;4979508;28;20494;-80
2023/06/24 06:46:08;;;;;;;1.50;0.90;;;24.80;94.80;;;;;;4997363;28;20494;-81
2023/06/24 06:48:35;;;;;;;1.50;0.90;;;24.90;93.50;;;;;;5010700;28;20519;-81
2023/06/24 06:51:02;;;;;;;1.50;0.90;;;24.90;93.80;;;;;;5000156;28;20468;-79
2023/06/24 06:53:34;;;;;;;1.50;0.80;;;24.90;93.60;;;;;;5001088;28;20463;-81
2023/06/24 07:02:04;;;;;;;1.50;0.90;;;24.80;95.00;;;;;;4998409;28;20475;-85
2023/06/24 07:04:33;;;;;;;1.50;0.90;;;24.90;93.50;;;;;;5005754;28;20614;-83
2023/06/24 07:07:09;;;;;;;1.50;0.90;;;24.90;93.30;;;;;;4994816;28;20495;-80
2023/06/24 07:09:42;;;;;;;1.50;0.80;;;25.00;93.40;;;;;;5013861;28;20465;-80
2023/06/24 07:15:27;;;;;;;1.50;0.80;;;25.30;92.90;;;;;;5008942;22;20537;-80
2023/06/24 07:18:11;;;;;;;1.50;1.00;;;25.60;92.00;;;;;;4970333;28;20481;-80
2023/06/24 07:21:07;;;;;;;1.50;0.90;;;25.90;89.40;;;;;;4999139;28;20756;-81
2023/06/24 07:23:48;;;;;;;1.50;0.87;;;26.20;88.60;;;;;;4971781;28;20481;-82
2023/06/24 07:26:33;;;;;;;1.50;0.90;;;26.30;88.10;;;;;;4987904;28;20488;-80
2023/06/24 07:29:01;;;;;;;1.50;0.90;;;26.40;85.20;;;;;;4992846;28;20466;-80
2023/06/24 07:31:28;;;;;;;1.50;0.90;;;26.40;86.10;;;;;;4981222;28;20487;-81
2023/06/24 07:33:57;;;;;;;1.47;0.80;;;26.40;85.70;;;;;;4989094;28;21020;-81
2023/06/24 07:36:24;;;;;;;1.50;0.90;;;26.30;86.20;;;;;;4978021;28;20623;-81
2023/06/24 07:38:52;;;;;;;1.50;0.90;;;26.20;86.40;;;;;;4983843;28;20448;-82
2023/06/24 07:41:20;;;;;;;1.50;0.80;;;26.20;85.00;;;;;;4987473;28;20495;-82
2023/06/24 07:44:05;;;;;;;1.47;0.90;;;26.10;86.00;;;;;;5000015;28;20510;-81
2023/06/24 07:46:39;;;;;;;1.50;0.90;;;26.00;86.70;;;;;;4981036;28;20552;-80
2023/06/24 07:49:19;;;;;;;1.47;0.83;;;26.10;88.60;;;;;;4995081;28;20490;-81
2023/06/24 07:54:28;;;;;;;1.47;0.90;;;26.10;85.90;;;;;;4994156;28;20464;-81
2023/06/24 07:56:56;;;;;;;1.50;1.20;;;26.00;87.40;;;;;;4974205;28;20907;-81
2023/06/24 07:59:24;;;;;;;1.50;0.90;;;25.90;86.30;;;;;;4995182;28;20542;-81
2023/06/24 08:01:52;;;;;;;1.50;0.80;;;25.70;86.70;;;;;;4984485;28;20969;-81
2023/06/24 08:04:21;;;;;;;1.47;0.80;;;25.70;87.80;;;;;;4993073;28;20496;-82
2023/06/24 08:06:58;;;;;;;1.43;0.83;;;25.80;85.60;;;;;;4976437;28;20486;-81
2023/06/24 08:09:28;;;;;;;1.50;0.87;;;26.00;86.60;;;;;;4992003;28;20463;-81
2023/06/24 08:11:55;;;;;;;1.50;0.80;;;26.20;85.00;;;;;;4986185;28;20519;-82
2023/06/24 08:14:29;;;;;;;1.43;0.80;;;26.30;83.70;;;;;;4994638;28;20508;-81
2023/06/24 08:16:56;;;;;;;1.50;0.90;;;26.40;84.50;;;;;;4985980;28;20571;-81
2023/06/24 08:19:28;;;;;;;1.47;0.80;;;26.60;86.50;;;;;;4999422;28;20763;-82
2023/06/24 08:25:00;;;;;;;1.50;0.90;;;27.10;82.80;;;;;;4997443;28;20491;-81
2023/06/24 08:27:28;;;;;;;1.50;0.80;;;27.30;80.10;;;;;;4982560;28;20521;-81
2023/06/24 08:29:55;;;;;;;1.50;0.80;;;27.40;79.20;;;;;;5000527;28;20466;-81
2023/06/24 08:32:25;;;;;;;1.50;0.80;;;27.60;80.30;;;;;;4983951;28;20527;-81
2023/06/24 08:34:57;;;;;;;1.50;0.83;;;27.80;80.90;;;;;;4989954;28;20937;-81
2023/06/24 08:37:53;;;;;;;1.50;0.90;;;28.10;80.80;;;;;;4991741;28;20480;-81
2023/06/24 08:40:22;;;;;;;1.50;0.90;;;28.20;79.60;;;;;;4990153;28;20532;-81
2023/06/24 08:42:49;;;;;;;1.50;0.80;;;28.30;79.50;;;;;;4981418;28;20512;-81
2023/06/24 08:45:45;;;;;;;1.50;0.80;;;28.50;81.40;;;;;;5000627;28;20487;-80
2023/06/24 08:48:13;;;;;;;1.47;0.80;;;28.70;78.50;;;;;;4967120;28;20483;-80
2023/06/24 08:50:47;;;;;;;1.47;0.80;;;28.90;79.40;;;;;;4997159;28;20565;-80
2023/06/24 08:53:32;;;;;;;1.50;0.80;;;29.20;79.80;;;;;;4974810;28;20541;-81
2023/06/24 08:56:00;;;;;;;1.43;0.80;;;29.40;80.60;;;;;;4985491;28;20493;-82
2023/06/24 08:58:30;;;;;;;1.50;0.90;;;29.50;78.30;;;;;;4993118;28;20499;-81
2023/06/24 09:00:58;;;;;;;1.50;0.80;;;29.60;79.40;;;;;;4983948;28;20648;-82
2023/06/24 09:03:26;;;;;;;1.50;0.90;;;29.80;77.90;;;;;;4995584;28;20492;-81
2023/06/24 09:05:55;;;;;;;1.50;0.80;;;29.90;78.80;;;;;;4984115;28;20515;-81
2023/06/24 09:08:26;;;;;;;1.50;0.80;;;30.00;77.30;;;;;;4996629;28;20459;-80
2023/06/24 09:10:57;;;;;;;1.70;1.10;;;30.10;77.60;;;;;;4983765;28;20466;-80
2023/06/24 09:13:35;;;;;;;1.50;0.80;;;30.30;77.60;;;;;;4988907;28;20487;-80
2023/06/24 09:16:14;;;;;;;1.50;0.90;;;30.40;76.50;;;;;;4980698;28;20489;-81
2023/06/24 09:18:41;;;;;;;3.20;1.20;;;30.40;76.10;;;;;;4975985;28;20871;-81
2023/06/24 09:21:13;;;;;;;1.43;0.80;;;30.40;75.80;;;;;;4982930;28;20490;-81
2023/06/24 09:23:40;;;;;;;1.50;0.80;;;30.60;75.70;;;;;;4989661;28;20429;-81
2023/06/24 09:26:13;;;;;;;1.47;0.80;;;30.70;75.00;;;;;;4982917;28;20247;-81
2023/06/24 09:28:40;;;;;;;1.50;0.80;;;30.90;76.00;;;;;;4978661;28;21802;-81
2023/06/24 09:31:09;;;;;;;1.50;0.80;;;31.00;74.00;;;;;;4986923;28;20789;-81
2023/06/24 09:33:37;;;;;;;1.60;1.20;;;31.10;74.80;;;;;;5000250;28;20213;-81
2023/06/24 09:36:06;;;;;;;1.47;0.80;;;31.10;75.10;;;;;;4983739;28;20241;-81
2023/06/24 09:38:57;;;;;;;1.60;0.93;;;31.30;74.40;;;;;;4998861;28;20205;-81
2023/06/24 09:41:27;;;;;;;1.50;0.80;;;31.50;75.80;;;;;;4983762;28;20282;-81
2023/06/24 09:44:00;;;;;;;1.47;0.80;;;31.60;74.30;;;;;;4988696;28;20212;-80
2023/06/24 09:46:36;;;;;;;1.50;0.80;;;31.70;74.40;;;;;;4975898;28;20237;-81
2023/06/24 09:49:04;;;;;;;1.50;0.80;;;31.70;73.70;;;;;;4991500;28;20295;-81
2023/06/24 09:51:35;;;;;;;1.43;0.80;;;31.80;73.70;;;;;;4965180;28;20246;-81
2023/06/24 09:54:06;;;;;;;1.47;0.80;;;31.90;71.40;;;;;;4979348;28;20224;-81
2023/06/24 09:56:36;;;;;;;1.48;0.80;;;32.00;72.40;;;;;;4979943;28;20255;-81
2023/06/24 09:59:06;;;;;;;1.42;0.80;;;32.00;70.60;;;;;;4990054;28;20420;-81
2023/06/24 10:01:39;;;;;;;1.47;0.90;;;32.10;70.10;;;;;;4976807;28;20240;-81
2023/06/24 10:04:07;;;;;;;1.42;0.80;;;32.00;69.30;;;;;;4977577;28;20206;-81
2023/06/24 10:06:36;;;;;;;1.45;0.80;;;32.10;71.30;;;;;;4971474;28;20707;-80
2023/06/24 10:09:06;;;;;;;1.45;0.80;;;32.30;71.10;;;;;;4988541;28;20307;-80
2023/06/24 10:11:37;;;;;;;1.45;0.80;;;32.20;71.50;;;;;;4979625;28;20232;-83
2023/06/24 10:16:41;;;;;;;1.42;0.80;;;32.50;71.60;;;;;;5004920;22;20634;-81
2023/06/24 10:19:08;;;;;;;1.48;0.80;;;32.60;70.30;;;;;;4952144;28;20215;-81
2023/06/24 10:21:50;;;;;;;1.42;0.80;;;32.60;71.10;;;;;;4937382;28;20223;-81
2023/06/24 10:24:56;;;;;;;1.45;0.80;;;32.80;70.60;;;;;;4953185;28;20210;-81
2023/06/24 10:27:27;;;;;;;1.48;0.80;;;33.00;69.60;;;;;;4939906;28;20315;-82
2023/06/24 10:30:05;;;;;;;1.40;0.80;;;33.20;67.80;;;;;;4960100;28;20636;-82
2023/06/24 10:32:41;;;;;;;1.40;0.80;;;33.30;67.40;;;;;;4949424;28;20264;-81
2023/06/24 10:35:22;;;;;;;1.40;0.80;;;33.50;67.10;;;;;;4959644;28;20281;-81
2023/06/24 10:37:58;;;;;;;1.40;0.80;;;33.80;63.70;;;;;;4952807;28;20296;-81
2023/06/24 10:40:39;;;;;;;1.40;0.80;;;33.80;62.50;;;;;;4955674;28;20197;-81
2023/06/24 10:43:31;;;;;;;1.40;0.80;;;33.80;64.50;;;;;;4949469;28;20258;-81
2023/06/24 10:46:00;;;;;;;1.48;0.80;;;34.00;64.10;;;;;;4951536;28;20230;-81
2023/06/24 10:48:27;;;;;;;1.40;0.80;;;34.00;62.60;;;;;;4958001;28;20246;-81
2023/06/24 10:50:57;;;;;;;1.40;0.80;;;34.00;63.50;;;;;;4953816;28;20577;-79
2023/06/24 10:53:25;;;;;;;1.40;0.80;;;34.00;62.10;;;;;;4959427;28;20231;-81
2023/06/24 10:55:53;;;;;;;1.60;1.05;;;34.10;59.20;;;;;;4950205;28;20494;-81
2023/06/24 10:58:20;;;;;;;1.40;0.80;;;34.20;58.80;;;;;;4958788;28;20301;-80
2023/06/24 11:00:49;;;;;;;1.45;0.80;;;34.30;60.60;;;;;;4951087;28;20210;-81
2023/06/24 11:03:20;;;;;;;1.42;0.80;;;34.40;60.90;;;;;;4939835;28;20213;-81
2023/06/24 11:05:49;;;;;;;1.42;0.80;;;34.50;62.00;;;;;;4949652;28;20239;-80
2023/06/24 11:08:18;;;;;;;1.40;0.80;;;34.50;61.20;;;;;;4966954;28;20625;-81
2023/06/24 11:11:29;;;;;;;1.42;0.80;;;34.50;62.20;;;;;;4968205;28;20212;-80
2023/06/24 11:13:58;;;;;;;1.45;0.80;;;34.60;58.10;;;;;;4935352;28;20321;-81
2023/06/24 11:16:27;;;;;;;1.50;1.00;;;34.70;58.40;;;;;;4953507;28;20230;-81
2023/06/24 11:18:56;;;;;;;1.42;0.80;;;34.80;58.30;;;;;;4967543;28;20254;-82
2023/06/24 11:25:00;;;;;;;1.48;0.80;;;34.70;57.60;;;;;;4898357;28;20249;-81
2023/06/24 11:27:29;;;;;;;1.40;0.80;;;34.70;58.00;;;;;;4945158;28;20234;-80
2023/06/24 11:33:34;;;;;;;1.42;0.80;;;34.90;57.50;;;;;;4902419;28;20266;-81
2023/06/24 11:36:18;;;;;;;1.40;0.80;;;35.00;56.60;;;;;;4949511;28;20705;-80
2023/06/24 11:39:49;;;;;;;1.50;1.00;;;35.10;56.80;;;;;;4958769;28;20210;-81
2023/06/24 11:42:22;;;;;;;1.40;0.80;;;35.20;57.90;;;;;;4939559;28;20640;-80
2023/06/24 11:45:07;;;;;;;1.40;0.80;;;35.20;59.40;;;;;;4953302;28;20619;-81
2023/06/24 11:47:40;;;;;;;1.40;0.80;;;35.30;59.10;;;;;;4928211;28;20234;-83
2023/06/24 11:53:23;;;;;;;1.40;0.80;;;35.40;55.90;;;;;;4927232;28;20674;-83
2023/06/24 11:56:07;;;;;;;1.40;0.80;;;35.50;58.30;;;;;;4947330;28;20584;-83
2023/06/24 11:58:50;;;;;;;;;;;;;;;;;;;;;
2023/06/24 12:01:46;;;;;;;1.40;0.80;;;35.50;55.40;;;;;;4938839;28;20311;-83
2023/06/24 12:20:15;;;;;;;;;;;;;;;;;;;;;
2023/06/24 12:23:03;;;;;;;1.40;0.80;;;35.90;56.50;;;;;;5005140;28;20254;-82
2023/06/24 12:32:00;;;;;;;1.40;0.80;;;36.10;56.00;;;;;;5004497;28;20350;-82
2023/06/24 12:40:06;;;;;;;1.40;0.80;;;35.80;57.60;;;;;;5023081;28;20226;-82
2023/06/24 12:43:24;;;;;;;1.40;0.80;;;35.80;56.60;;;;;;5003214;28;20251;-82
2023/06/24 12:45:55;;;;;;;1.40;0.80;;;35.80;57.40;;;;;;4987052;28;20382;-81
2023/06/24 12:48:28;;;;;;;1.40;0.80;;;35.90;57.00;;;;;;5023078;28;20228;-81
2023/06/24 12:51:03;;;;;;;1.40;0.80;;;35.90;56.50;;;;;;5010522;28;20215;-81
2023/06/24 12:53:30;;;;;;;1.40;0.80;;;35.80;54.40;;;;;;5021755;28;20208;-80
2023/06/24 12:56:14;;;;;;;1.40;0.80;;;35.60;54.10;;;;;;5014050;28;20268;-81
2023/06/24 12:58:40;;;;;;;1.40;0.80;;;35.50;58.30;;;;;;5011743;28;20210;-81
2023/06/24 13:01:19;;;;;;;1.40;0.80;;;35.60;56.70;;;;;;5007660;28;20225;-80
2023/06/24 13:03:53;;;;;;;1.40;0.80;;;35.70;56.60;;;;;;5026414;28;20216;-81
2023/06/24 13:06:22;;;;;;;1.40;0.80;;;35.70;56.30;;;;;;5009376;28;20746;-81
2023/06/24 13:09:15;;;;;;;1.40;0.80;;;35.80;55.70;;;;;;5010832;28;20593;-81
2023/06/24 13:12:04;;;;;;;1.40;1.00;;;35.90;54.30;;;;;;5008499;28;20232;-81
2023/06/24 13:20:24;;;;;;;1.40;0.80;;;36.00;54.40;;;;;;5023409;28;20691;-82
2023/06/24 13:26:10;;;;;;;1.40;0.80;;;36.10;53.40;;;;;;5010179;28;20236;-81
2023/06/24 13:28:46;;;;;;;1.40;0.80;;;36.20;54.10;;;;;;5022577;28;21033;-80
2023/06/24 13:31:41;;;;;;;1.40;0.80;;;36.20;51.10;;;;;;5013290;28;20223;-81
2023/06/24 13:34:19;;;;;;;1.40;0.80;;;36.10;50.30;;;;;;5005667;28;20310;-81
2023/06/24 13:36:49;;;;;;;1.40;0.80;;;36.10;51.10;;;;;;4991586;28;20251;-81
2023/06/24 13:39:22;;;;;;;1.40;0.80;;;36.10;52.70;;;;;;5018276;28;20215;-81
2023/06/24 13:42:10;;;;;;;1.40;0.80;;;36.10;52.60;;;;;;5001906;28;20239;-81
2023/06/24 13:44:44;;;;;;;1.40;0.80;;;36.10;51.80;;;;;;5015557;28;20468;-81
2023/06/24 13:47:11;;;;;;;1.40;0.80;;;36.00;52.00;;;;;;5011243;28;20697;-80
2023/06/24 13:49:37;;;;;;;1.35;0.80;;;36.00;52.30;;;;;;5024555;28;20204;-81
2023/06/24 13:52:05;;;;;;;1.38;0.80;;;36.10;52.40;;;;;;5010864;28;20556;-81
2023/06/24 13:54:35;;;;;;;1.38;0.80;;;36.10;50.10;;;;;;5016987;28;20586;-80
2023/06/24 13:57:02;;;;;;;1.40;0.82;;;36.10;51.90;;;;;;5008924;28;20754;-81
2023/06/24 13:59:29;;;;;;;1.40;0.80;;;36.30;54.30;;;;;;5018186;28;20255;-80
2023/06/24 14:01:57;;;;;;;1.40;0.80;;;36.30;52.30;;;;;;4993025;28;20240;-80
2023/06/24 14:04:24;;;;;;;1.40;0.80;;;36.30;54.60;;;;;;4970727;28;1099954;-80
2023/06/24 14:06:53;;;;;;;1.40;0.80;;;36.20;54.50;;;;;;5004262;28;20528;-80
2023/06/24 14:09:20;;;;;;;1.40;0.80;;;36.20;51.30;;;;;;5017882;28;20200;-80
2023/06/24 14:11:46;;;;;;;1.40;0.80;;;36.00;53.00;;;;;;5004304;28;20224;-80
2023/06/24 14:14:18;;;;;;;1.40;0.80;;;36.00;50.40;;;;;;5015895;28;20204;-82
2023/06/24 14:16:49;;;;;;;1.40;0.80;;;36.10;51.70;;;;;;5000655;28;20271;-80
2023/06/24 14:19:17;;;;;;;1.40;0.80;;;36.10;53.10;;;;;;5011056;28;20322;-80
2023/06/24 14:21:44;;;;;;;1.40;0.80;;;36.00;52.50;;;;;;5008650;28;20234;-80
2023/06/24 14:24:12;;;;;;;1.40;0.80;;;35.90;53.50;;;;;;5024496;28;20763;-81
2023/06/24 14:26:40;;;;;;;1.40;0.80;;;35.90;53.80;;;;;;5003102;28;20325;-79
2023/06/24 14:29:07;;;;;;;1.40;0.80;;;35.90;53.90;;;;;;5015811;28;20240;-81